createdAt,value
2023-04-26T00:00:00.824Z,2.58
2023-04-26T00:02:28.064Z,1.83
2023-04-26T00:04:56.600Z,2.08
2023-04-26T00:07:29.790Z,3.28
2023-04-26T00:09:56.759Z,2.45
2023-04-26T00:12:23.897Z,2.40
2023-04-26T00:14:50.925Z,2.78
2023-04-26T00:17:17.786Z,3.10
2023-04-26T00:19:45.235Z,2.85
2023-04-26T00:22:12.058Z,2.20
2023-04-26T00:24:38.968Z,2.58
2023-04-26T00:27:09.185Z,2.45
2023-04-26T00:29:37.023Z,2.60
2023-04-26T00:32:04.308Z,3.13
2023-04-26T00:34:34.785Z,2.38
2023-04-26T00:37:01.730Z,2.50
2023-04-26T00:39:28.929Z,3.85
2023-04-26T00:41:55.915Z,2.55
2023-04-26T00:44:22.833Z,2.88
2023-04-26T00:46:52.315Z,2.83
2023-04-26T00:49:21.986Z,2.45
2023-04-26T00:51:49.988Z,2.30
2023-04-26T00:54:17.032Z,2.33
2023-04-26T00:56:46.009Z,3.13
2023-04-26T00:59:13.059Z,2.92
2023-04-26T01:01:42.261Z,3.03
2023-04-26T01:04:10.091Z,2.88
2023-04-26T01:06:38.508Z,2.70
2023-04-26T01:09:10.053Z,2.47
2023-04-26T01:11:37.668Z,5.22
2023-04-26T01:14:05.621Z,3.00
2023-04-26T01:16:34.016Z,2.90
2023-04-26T01:19:13.864Z,2.40
2023-04-26T01:21:41.610Z,2.30
2023-04-26T01:24:12.776Z,3.15
2023-04-26T01:26:45.601Z,2.13
2023-04-26T01:29:21.125Z,2.40
2023-04-26T01:31:48.927Z,2.50
2023-04-26T01:34:16.274Z,3.25
2023-04-26T01:36:43.048Z,3.35
2023-04-26T01:39:10.377Z,2.70
2023-04-26T01:41:37.418Z,2.65
2023-04-26T01:44:04.515Z,2.58
2023-04-26T01:46:31.454Z,2.63
2023-04-26T01:48:58.428Z,2.45
2023-04-26T01:51:25.484Z,3.55
2023-04-26T01:53:52.365Z,2.88
2023-04-26T01:56:21.549Z,2.53
2023-04-26T01:58:48.406Z,2.20
2023-04-26T02:01:15.336Z,3.40
2023-04-26T02:03:42.217Z,2.88
2023-04-26T02:06:09.130Z,2.70
2023-04-26T02:08:36.602Z,2.38
2023-04-26T02:11:03.640Z,3.55
2023-04-26T02:13:31.949Z,2.97
2023-04-26T02:15:59.454Z,2.60
2023-04-26T02:18:26.802Z,2.97
2023-04-26T02:20:53.613Z,2.83
2023-04-26T02:23:20.426Z,2.97
2023-04-26T02:25:48.727Z,2.63
2023-04-26T02:28:16.387Z,2.25
2023-04-26T02:30:43.356Z,2.35
2023-04-26T02:33:10.256Z,2.78
2023-04-26T02:35:37.509Z,2.38
2023-04-26T02:38:04.749Z,2.67
2023-04-26T02:40:31.738Z,2.58
2023-04-26T02:42:58.575Z,2.97
2023-04-26T02:45:25.597Z,3.25
2023-04-26T02:47:52.555Z,2.70
2023-04-26T02:50:19.503Z,3.30
2023-04-26T02:52:46.452Z,2.55
2023-04-26T02:55:13.337Z,2.92
2023-04-26T02:57:40.169Z,2.40
2023-04-26T03:00:08.211Z,2.90
2023-04-26T03:02:35.190Z,2.55
2023-04-26T03:05:02.565Z,2.15
2023-04-26T03:07:29.542Z,2.78
2023-04-26T03:09:56.455Z,2.80
2023-04-26T03:12:23.325Z,2.78
2023-04-26T03:14:50.149Z,2.75
2023-04-26T03:17:17.062Z,2.53
2023-04-26T03:19:43.894Z,3.13
2023-04-26T03:22:15.901Z,2.80
2023-04-26T03:24:46.840Z,2.78
2023-04-26T03:27:14.032Z,2.60
2023-04-26T03:29:42.187Z,2.03
2023-04-26T03:32:11.010Z,3.00
2023-04-26T03:34:37.889Z,2.70
2023-04-26T03:37:04.762Z,2.47
2023-04-26T03:39:31.744Z,3.00
2023-04-26T03:41:58.622Z,2.65
2023-04-26T03:44:25.483Z,2.80
2023-04-26T03:46:52.398Z,2.58
2023-04-26T03:49:19.269Z,2.38
2023-04-26T03:51:46.118Z,3.10
2023-04-26T03:54:13.179Z,2.45
2023-04-26T03:56:40.209Z,2.50
2023-04-26T03:59:09.843Z,5.25
2023-04-26T04:01:36.732Z,3.15
2023-04-26T04:04:04.056Z,3.78
2023-04-26T04:06:31.222Z,3.50
2023-04-26T04:08:58.307Z,3.00
2023-04-26T04:11:25.274Z,3.35
2023-04-26T04:13:52.087Z,3.10
2023-04-26T04:16:18.926Z,3.03
2023-04-26T04:18:45.781Z,2.80
2023-04-26T04:21:12.633Z,3.58
2023-04-26T04:23:39.498Z,3.08
2023-04-26T04:26:06.308Z,3.45
2023-04-26T04:28:34.487Z,2.97
2023-04-26T04:31:01.886Z,3.53
2023-04-26T04:33:29.609Z,3.17
2023-04-26T04:35:56.747Z,3.45
2023-04-26T04:38:24.376Z,3.97
2023-04-26T04:40:51.602Z,3.38
2023-04-26T04:43:18.680Z,3.92
2023-04-26T04:45:45.491Z,4.00
2023-04-26T04:48:12.362Z,3.17
2023-04-26T04:50:39.901Z,3.58
2023-04-26T04:53:06.710Z,3.50
2023-04-26T04:55:33.842Z,3.88
2023-04-26T04:58:01.713Z,3.55
2023-04-26T05:00:28.859Z,4.00
2023-04-26T05:02:56.703Z,3.95
2023-04-26T05:05:23.837Z,4.07
2023-04-26T05:07:50.785Z,3.03
2023-04-26T05:10:17.694Z,3.65
2023-04-26T05:12:44.561Z,3.78
2023-04-26T05:15:11.672Z,3.08
2023-04-26T05:17:38.590Z,3.03
2023-04-26T05:20:07.997Z,3.63
2023-04-26T05:22:36.951Z,3.70
2023-04-26T05:25:04.966Z,3.17
2023-04-26T05:27:31.926Z,3.00
2023-04-26T05:30:00.353Z,3.45
2023-04-26T05:32:27.252Z,4.95
2023-04-26T05:34:54.383Z,4.00
2023-04-26T05:37:21.460Z,3.50
2023-04-26T05:39:49.096Z,2.83
2023-04-26T05:42:17.891Z,3.63
2023-04-26T05:44:45.092Z,3.20
2023-04-26T05:47:12.202Z,3.00
2023-04-26T05:49:39.052Z,3.75
2023-04-26T05:52:05.904Z,2.55
2023-04-26T05:54:32.835Z,2.72
2023-04-26T05:56:59.744Z,2.75
2023-04-26T05:59:26.728Z,3.42
2023-04-26T06:01:53.915Z,2.88
2023-04-26T06:04:21.078Z,3.00
2023-04-26T06:06:48.003Z,3.28
2023-04-26T06:09:14.864Z,3.20
2023-04-26T06:11:41.644Z,3.15
2023-04-26T06:14:16.839Z,3.28
2023-04-26T06:16:50.378Z,2.92
2023-04-26T06:19:17.400Z,2.00
2023-04-26T06:21:44.178Z,2.72
2023-04-26T06:24:10.946Z,3.13
2023-04-26T06:26:37.878Z,2.95
2023-04-26T06:29:04.691Z,3.50
2023-04-26T06:31:32.456Z,3.05
2023-04-26T06:33:59.291Z,2.95
2023-04-26T06:36:28.140Z,2.45
2023-04-26T06:38:55.018Z,3.13
2023-04-26T06:41:22.466Z,3.85
2023-04-26T06:43:49.956Z,2.85
2023-04-26T06:46:17.048Z,2.70
2023-04-26T06:48:43.896Z,2.83
2023-04-26T06:51:10.952Z,2.55
2023-04-26T06:53:38.104Z,2.50
2023-04-26T06:56:07.822Z,2.97
2023-04-26T06:58:34.706Z,2.55
2023-04-26T07:01:04.790Z,2.50
2023-04-26T07:03:32.472Z,2.25
2023-04-26T07:05:59.538Z,1.92
2023-04-26T07:08:26.425Z,2.90
2023-04-26T07:10:53.393Z,2.25
2023-04-26T07:13:20.171Z,1.73
2023-04-26T07:15:47.548Z,2.03
2023-04-26T07:18:15.596Z,2.35
2023-04-26T07:20:42.397Z,1.95
2023-04-26T07:23:09.192Z,1.85
2023-04-26T07:25:36.404Z,1.48
2023-04-26T07:28:03.254Z,1.40
2023-04-26T07:30:32.522Z,2.17
2023-04-26T07:32:59.563Z,2.33
2023-04-26T07:35:26.458Z,2.53
2023-04-26T07:37:53.370Z,1.45
2023-04-26T07:40:22.697Z,1.30
2023-04-26T07:42:49.656Z,1.05
2023-04-26T07:45:16.907Z,1.73
2023-04-26T07:47:44.363Z,1.50
2023-04-26T07:50:12.033Z,1.77
2023-04-26T07:52:39.548Z,1.63
2023-04-26T07:55:06.863Z,1.60
2023-04-26T07:57:36.832Z,1.70
2023-04-26T08:00:09.782Z,1.83
2023-04-26T08:02:44.516Z,2.33
2023-04-26T08:05:13.447Z,1.40
2023-04-26T08:07:41.475Z,1.67
2023-04-26T08:10:08.616Z,1.70
2023-04-26T08:12:37.229Z,1.40
2023-04-26T08:15:05.530Z,2.38
2023-04-26T08:17:32.949Z,1.50
2023-04-26T08:20:00.085Z,1.60
2023-04-26T08:22:27.434Z,1.23
2023-04-26T08:24:55.935Z,1.58
2023-04-26T08:27:23.182Z,1.50
2023-04-26T08:29:50.133Z,1.70
2023-04-26T08:32:16.955Z,1.55
2023-04-26T08:34:43.807Z,1.50
2023-04-26T08:37:11.973Z,1.50
2023-04-26T08:39:38.883Z,1.50
2023-04-26T08:42:18.525Z,1.88
2023-04-26T08:44:46.467Z,1.83
2023-04-26T08:47:18.068Z,1.83
2023-04-26T08:49:53.170Z,1.95
2023-04-26T08:52:23.412Z,2.10
2023-04-26T08:54:52.794Z,1.23
2023-04-26T08:57:23.886Z,1.60
2023-04-26T08:59:53.914Z,1.52
2023-04-26T09:02:23.540Z,2.17
2023-04-26T09:04:51.452Z,1.75
2023-04-26T09:07:26.252Z,1.65
2023-04-26T09:09:57.583Z,1.45
2023-04-26T09:12:25.210Z,1.50
2023-04-26T09:14:53.105Z,1.10
2023-04-26T09:17:37.553Z,1.25
2023-04-26T09:20:23.184Z,1.38
2023-04-26T09:22:54.880Z,1.15
2023-04-26T09:25:30.023Z,1.27
2023-04-26T09:27:58.016Z,1.33
2023-04-26T09:30:25.862Z,1.77
2023-04-26T09:33:04.557Z,1.35
2023-04-26T09:35:36.440Z,1.35
2023-04-26T09:38:11.686Z,1.25
2023-04-26T09:40:47.348Z,1.40
2023-04-26T09:43:18.655Z,1.58
2023-04-26T09:45:51.072Z,1.73
2023-04-26T09:48:26.895Z,1.13
2023-04-26T09:51:06.784Z,1.42
2023-04-26T09:53:39.489Z,1.58
2023-04-26T09:56:17.680Z,1.38
2023-04-26T09:58:47.523Z,1.30
2023-04-26T10:01:21.819Z,1.30
2023-04-26T10:03:49.252Z,1.27
2023-04-26T10:06:17.512Z,1.45
2023-04-26T10:08:45.465Z,1.40
2023-04-26T10:11:12.730Z,1.20
2023-04-26T10:13:44.758Z,1.27
2023-04-26T10:16:11.791Z,1.08
2023-04-26T10:18:39.109Z,1.40
2023-04-26T10:21:17.071Z,1.40
2023-04-26T10:23:44.556Z,1.17
2023-04-26T10:26:49.641Z,1.42
2023-04-26T10:29:16.658Z,1.60
2023-04-26T10:32:09.467Z,1.90
2023-04-26T10:34:37.356Z,1.40
2023-04-26T10:37:14.772Z,1.70
2023-04-26T10:39:43.635Z,1.42
2023-04-26T10:42:27.361Z,1.13
2023-04-26T10:45:27.814Z,1.40
2023-04-26T10:48:20.524Z,1.58
2023-04-26T10:51:02.688Z,1.27
2023-04-26T10:53:30.725Z,0.93
2023-04-26T10:55:57.835Z,0.82
2023-04-26T10:58:40.868Z,1.40
2023-04-26T11:01:18.899Z,1.50
2023-04-26T11:03:58.732Z,1.20
2023-04-26T11:06:29.751Z,0.85
2023-04-26T11:08:56.665Z,1.85
2023-04-26T11:11:28.855Z,1.52
2023-04-26T11:13:56.489Z,1.50
2023-04-26T11:16:26.752Z,1.70
2023-04-26T11:18:54.926Z,2.55
2023-04-26T11:21:22.050Z,2.15
2023-04-26T11:23:55.525Z,2.05
2023-04-26T11:26:22.870Z,1.42
2023-04-26T11:28:49.764Z,2.28
2023-04-26T11:31:19.103Z,1.90
2023-04-26T11:33:49.095Z,2.30
2023-04-26T11:36:17.461Z,2.08
2023-04-26T11:38:44.376Z,1.55
2023-04-26T11:41:11.547Z,2.78
2023-04-26T11:43:39.845Z,2.10
2023-04-26T11:46:09.440Z,1.65
2023-04-26T11:48:42.202Z,1.90
2023-04-26T11:51:10.438Z,1.42
2023-04-26T11:53:39.151Z,1.45
2023-04-26T11:56:22.575Z,1.17
2023-04-26T12:01:26.413Z,1.50
2023-04-26T12:03:55.234Z,1.48
2023-04-26T12:06:43.469Z,1.77
2023-04-26T12:09:12.389Z,1.48
2023-04-26T12:11:40.125Z,1.60
2023-04-26T12:14:10.030Z,1.25
2023-04-26T12:16:37.391Z,1.30
2023-04-26T12:19:08.876Z,1.17
2023-04-26T12:21:43.480Z,3.22
2023-04-26T12:24:23.632Z,2.33
2023-04-26T12:26:50.539Z,1.38
2023-04-26T12:29:17.709Z,1.50
2023-04-26T12:31:44.764Z,1.52
2023-04-26T12:34:11.693Z,1.40
2023-04-26T12:36:41.022Z,1.40
2023-04-26T12:39:07.905Z,1.90
2023-04-26T12:41:34.804Z,1.60
2023-04-26T12:44:02.019Z,1.25
2023-04-26T12:46:28.962Z,1.50
2023-04-26T12:48:56.419Z,1.90
2023-04-26T12:51:23.254Z,1.52
2023-04-26T12:53:51.077Z,1.40
2023-04-26T12:56:17.927Z,1.25
2023-04-26T12:58:44.779Z,2.03
2023-04-26T13:01:13.234Z,1.70
2023-04-26T13:03:40.854Z,1.35
2023-04-26T13:06:08.163Z,1.65
2023-04-26T13:08:35.245Z,1.25
2023-04-26T13:11:02.253Z,1.38
2023-04-26T13:13:39.884Z,1.65
2023-04-26T13:16:10.064Z,1.92
2023-04-26T13:18:37.119Z,2.30
2023-04-26T13:21:04.233Z,2.10
2023-04-26T13:23:31.741Z,1.63
2023-04-26T13:25:58.608Z,2.08
2023-04-26T13:28:25.645Z,1.70
2023-04-26T13:30:52.777Z,1.83
2023-04-26T13:33:21.304Z,1.92
2023-04-26T13:35:48.659Z,1.48
2023-04-26T13:38:16.569Z,1.55
2023-04-26T13:40:44.362Z,1.42
2023-04-26T13:43:11.331Z,1.45
2023-04-26T13:45:38.805Z,2.20
2023-04-26T13:48:06.150Z,1.75
2023-04-26T13:50:33.016Z,1.33
2023-04-26T13:53:00.116Z,1.77
2023-04-26T13:55:27.160Z,1.65
2023-04-26T13:57:54.151Z,1.90
2023-04-26T14:00:21.910Z,2.63
2023-04-26T14:02:49.714Z,1.55
2023-04-26T14:05:17.068Z,1.33
2023-04-26T14:07:44.079Z,1.80
2023-04-26T14:10:12.357Z,1.38
2023-04-26T14:12:39.830Z,1.73
2023-04-26T14:15:07.431Z,1.58
2023-04-26T14:17:34.648Z,1.48
2023-04-26T14:20:01.689Z,1.52
2023-04-26T14:22:28.654Z,1.67
2023-04-26T14:24:55.841Z,1.10
2023-04-26T14:27:22.929Z,1.65
2023-04-26T14:29:50.946Z,1.58
2023-04-26T14:32:17.934Z,1.50
2023-04-26T14:34:44.826Z,1.75
2023-04-26T14:37:11.674Z,1.90
2023-04-26T14:39:38.731Z,1.45
2023-04-26T14:42:05.709Z,1.50
2023-04-26T14:44:32.758Z,1.73
2023-04-26T14:46:59.583Z,1.35
2023-04-26T14:49:26.558Z,1.77
2023-04-26T14:51:53.852Z,1.52
2023-04-26T14:54:26.809Z,1.30
2023-04-26T14:56:53.826Z,1.95
2023-04-26T14:59:21.148Z,1.15
2023-04-26T15:01:48.793Z,1.20
2023-04-26T15:04:15.927Z,1.40
2023-04-26T15:06:42.932Z,1.27
2023-04-26T15:09:11.954Z,1.40
2023-04-26T15:11:39.127Z,1.48
2023-04-26T15:14:06.164Z,1.38
2023-04-26T15:16:33.244Z,1.30
2023-04-26T15:19:06.322Z,1.30
2023-04-26T15:24:01.291Z,1.58
2023-04-26T15:26:31.060Z,2.03
2023-04-26T15:28:57.974Z,1.42
2023-04-26T15:31:25.148Z,1.52
2023-04-26T15:33:57.051Z,1.13
2023-04-26T15:36:24.074Z,1.73
2023-04-26T15:38:51.868Z,1.50
2023-04-26T15:41:18.988Z,1.52
2023-04-26T15:43:45.910Z,1.30
2023-04-26T15:46:16.546Z,1.42
2023-04-26T15:48:44.146Z,2.35
2023-04-26T15:51:10.982Z,1.55
2023-04-26T15:53:41.353Z,1.80
2023-04-26T15:56:17.989Z,1.55
2023-04-26T15:58:46.365Z,1.63
2023-04-26T16:01:13.706Z,1.70
2023-04-26T16:03:42.694Z,1.95
2023-04-26T16:06:11.679Z,2.05
2023-04-26T16:08:42.038Z,1.60
2023-04-26T16:11:08.895Z,2.10
2023-04-26T22:19:10.817Z,4.05
2023-04-26T22:21:37.991Z,4.57
2023-04-26T22:24:05.013Z,4.90
2023-04-26T22:26:31.867Z,4.07
2023-04-26T22:28:58.829Z,4.55
2023-04-26T22:31:26.140Z,5.32
2023-04-26T22:33:53.140Z,6.55
2023-04-26T22:36:21.117Z,10.65
2023-04-26T22:38:47.920Z,20.98
2023-04-26T22:41:14.729Z,32.88
2023-04-26T22:43:43.070Z,27.20
2023-04-26T22:46:10.126Z,23.38
2023-04-26T22:48:36.962Z,16.00
2023-04-26T22:51:03.946Z,7.20
2023-04-26T22:53:31.016Z,5.70
2023-04-26T22:55:57.868Z,5.40
2023-04-26T22:58:25.477Z,5.00
2023-04-26T23:00:52.349Z,4.65
2023-04-26T23:03:19.307Z,4.30
2023-04-26T23:05:47.206Z,4.00
2023-04-26T23:08:14.100Z,3.88
2023-04-26T23:10:41.092Z,3.92
2023-04-26T23:13:07.947Z,3.45
2023-04-26T23:15:34.757Z,3.95
2023-04-26T23:18:01.661Z,3.90
2023-04-26T23:20:28.903Z,3.80
2023-04-26T23:22:55.937Z,4.07
2023-04-26T23:25:22.768Z,3.38
2023-04-26T23:27:49.672Z,3.53
2023-04-26T23:30:16.903Z,3.22
2023-04-26T23:32:43.760Z,3.67
2023-04-26T23:35:10.627Z,3.88
2023-04-26T23:37:37.440Z,3.67
2023-04-26T23:40:06.542Z,3.78
2023-04-26T23:42:33.403Z,4.15
2023-04-26T23:45:00.285Z,3.55
2023-04-26T23:47:27.476Z,4.05
2023-04-26T23:49:54.461Z,4.47
2023-04-26T23:52:21.397Z,4.20
2023-04-26T23:54:50.777Z,3.97
2023-04-26T23:57:17.866Z,4.45
2023-04-26T23:59:44.978Z,3.95
